Terminal Aerodrome Forecast
Issued by NWS Cleveland, OH

Home | Current Version | Previous Version | Graphics & Text | Print | Product List | Glossary On
Versions: 1 2 3 4 5 6 7 8 9 10 11 12 13 14 15 16 17 18 19 20
964
FTUS41 KCLE 031238 AAA
TAFCAK
TAF AMD
KCAK 031238Z 0313/0412 18015G25KT P6SM SCT025 OVC035
      TEMPO 0313/0316 OVC025
     FM031600 21015G25KT P6SM SCT035
     FM040000 24010G15KT P6SM OVC035
     FM040600 25010KT P6SM OVC015=

USA.gov is the U.S. government's official web portal to all federal, state and local government web resources and services.